• Join FlightAware (Why Join?)
  • Login
  • US Flag 
02:00PM EDT


 

Airport Tracker/Info


-or-


 

Live Flight TrackerFlight Track Log ✈ SKW6335 ✈ 21-Apr-2013 ✈ KLAX - KSAN

Flight Track Log - Related Links

Times and Time Zones

All times are in EDT time to prevent confusion due to time zone crossing. See the SKW6335 flight status page for this flight to view local times or setup timezone preferences in your user account.

Time Position Orientation Groundspeed Altitude Reporting Facility
EDT Latitude Longitude Course Direction KTS MPH feet Rate Location/Type
06:11PM 33.9333 -118.4333 139° Southeast 153 176 1,700  Level Southern California TRACON
06:12PM 33.8833 -118.4667 209° Southwest 190 219 3,200 1,260 Climbing Southern California TRACON
06:13PM 33.8522 -118.4631 174° South 190 219 4,000 1,260 Climbing Los Angeles Center
06:14PM 33.7529 -118.2140 140° Southeast  Level Estimated
06:14PM 33.7958 -118.4656 182° South 201 231 5,400  Level Los Angeles Center
06:15PM 33.6897 -118.1495 139° Southeast  Level Estimated
06:15PM 33.7403 -118.4625 177° South 206 237 6,800  Level Los Angeles Center
06:16PM 33.6266 -118.0847 139° Southeast  Level FlightAware Approximate
06:16PM 33.6842 -118.4114 143° Southeast 213 245 8,500  Level Los Angeles Center
06:17PM 33.6528 -118.3461 120° Southeast 225 259 9,000 240 Climbing Los Angeles Center
06:18PM 33.6147 -118.2747 123° Southeast 243 280 9,000  Level Los Angeles Center
06:19PM 33.5753 -118.1997 122° Southeast 257 296 9,000  Level Los Angeles Center
06:20PM 33.5369 -118.1242 121° Southeast 264 304 9,000  Level Los Angeles Center
06:21PM 33.4906 -118.0319 121° Southeast 269 310 9,000  Level Los Angeles Center
06:22PM 33.4525 -117.9558 121° Southeast 268 308 9,000 -60 Level Los Angeles Center
06:23PM 33.4142 -117.8794 121° Southeast 268 308 8,900 -60 Descending Los Angeles Center
06:24PM 33.3764 -117.8019 120° Southeast 269 310 8,900  Level Los Angeles Center
06:25PM 33.3389 -117.7269 121° Southeast 266 306 9,000  Climbing Los Angeles Center
06:26PM 33.2878 -117.6419 126° Southeast 262 302 9,000 -60 Level Los Angeles Center
06:27PM 33.2500 -117.5833 128° Southeast 264 304 8,900  Descending Southern California TRACON
06:28PM 33.1833 -117.5333 148° Southeast 265 305 9,000  Climbing Southern California TRACON
06:29PM 33.1167 -117.4833 148° Southeast 266 306 9,000  Level Southern California TRACON
06:30PM 33.0500 -117.4333 148° Southeast 265 305 9,000  Level Southern California TRACON
06:30PM 33.0517 -117.4333 360° North 267 307 9,000 -420 Level Los Angeles Center
06:31PM 32.9892 -117.3850 147° Southeast 266 306 8,500 -600 Descending Los Angeles Center
06:32PM 32.9333 -117.3333 142° Southeast 271 312 8,000 -780 Descending Southern California TRACON
06:33PM 32.8833 -117.2667 132° Southeast 268 308 7,200 -540 Descending Southern California TRACON
06:34PM 32.8500 -117.1833 115° Southeast 267 307 7,000 -240 Descending Southern California TRACON
06:34PM 32.8436 -117.1642 112° Southeast 265 305 6,900 -900 Descending Los Angeles Center
06:35PM 32.8167 -117.1167 124° Southeast 261 300 6,100 -1,140 Descending Southern California TRACON
06:36PM 32.7833 -117.0333 115° Southeast 251 289 5,100 -960 Descending Southern California TRACON
06:37PM 32.7500 -116.9833 128° Southeast 215 247 4,200 -600 Descending Southern California TRACON
06:38PM 32.7000 -116.9833 180° South 217 250 4,000 -240 Descending Southern California TRACON